Time;durP1;ratioP1;P1;durP2;ratioP2;P2;SDS_P1;SDS_P2;PMS_P1;PMS_P2;Temp;Humidity;BMP_temperature;BMP_pressure;BME280_temperature;BME280_humidity;BME280_pressure;Samples;Min_cycle;Max_cycle;Signal;HPM_P1;HPM_P2
2023/02/07 00:00:04;;;;;;;24.63;10.43;;;;;;;-3.93;58.93;102030.37;5286849;27;20610;-94
2023/02/07 00:02:29;;;;;;;25.02;9.88;;;;;;;-4.06;58.93;102037.22;5268867;27;20045;-94
2023/02/07 00:04:55;;;;;;;29.70;10.77;;;;;;;-4.12;58.93;102036.84;5268638;27;20075;-94
2023/02/07 00:07:20;;;;;;;20.70;9.48;;;;;;;-4.10;58.93;102037.81;5272028;27;20073;-93
2023/02/07 00:09:46;;;;;;;28.15;9.30;;;;;;;-3.82;58.95;102049.72;5272583;27;20124;-94
2023/02/07 00:12:11;;;;;;;27.40;10.48;;;;;;;-4.08;58.93;102046.41;5268454;27;20123;-91
2023/02/07 00:14:37;;;;;;;22.62;10.07;;;;;;;-4.05;58.93;102058.44;5267970;27;20128;-91
2023/02/07 00:17:02;;;;;;;25.00;10.77;;;;;;;-4.11;58.93;102060.59;5268346;27;20116;-91
2023/02/07 00:19:28;;;;;;;28.98;10.60;;;;;;;-4.24;58.92;102060.63;5268438;27;20359;-91
2023/02/07 00:21:53;;;;;;;27.20;9.50;;;;;;;-4.30;58.92;102070.37;5268600;27;20432;-92
2023/02/07 00:24:18;;;;;;;23.42;9.85;;;;;;;-4.37;58.91;102074.19;5286427;27;20061;-91
2023/02/07 00:26:46;;;;;;;24.27;9.15;;;;;;;-4.36;58.91;102074.28;5268217;27;20056;-93
2023/02/07 00:29:11;;;;;;;28.17;9.98;;;;;;;-4.41;58.91;102070.56;5271945;27;20048;-93
2023/02/07 00:31:38;;;;;;;26.90;9.85;;;;;;;-4.29;58.91;102075.53;5268770;27;20078;-94
2023/02/07 00:34:04;;;;;;;29.65;9.55;;;;;;;-4.33;58.92;102082.09;5269026;27;20061;-93
2023/02/07 00:36:30;;;;;;;23.85;10.35;;;;;;;-4.20;58.92;102071.06;5269485;27;20064;-92
2023/02/07 00:38:57;;;;;;;27.52;10.35;;;;;;;-4.23;58.92;102070.87;5268993;27;20135;-93
2023/02/07 00:41:23;;;;;;;24.65;10.02;;;;;;;-4.21;58.92;102076.94;5269010;27;20060;-92
2023/02/07 00:43:48;;;;;;;25.00;11.02;;;;;;;-4.29;58.91;102077.22;5271110;27;20333;-93
2023/02/07 00:46:14;;;;;;;25.67;10.13;;;;;;;-4.42;58.92;102081.50;5268614;27;20112;-92
2023/02/07 00:48:39;;;;;;;27.90;10.98;;;;;;;-4.41;58.92;102084.94;5267941;27;20175;-92
2023/02/07 00:51:05;;;;;;;28.30;10.02;;;;;;;-4.31;58.91;102089.81;5270865;27;20105;-91
2023/02/07 00:53:30;;;;;;;27.02;10.82;;;;;;;-4.15;58.93;102079.88;5268505;27;20079;-92
2023/02/07 00:55:56;;;;;;;24.92;9.77;;;;;;;-4.09;58.93;102077.72;5268507;27;20072;-92
2023/02/07 00:58:21;;;;;;;22.87;9.00;;;;;;;-4.27;58.92;102079.06;5268723;27;20077;-91
2023/02/07 01:00:46;;;;;;;27.77;9.23;;;;;;;-4.42;58.92;102078.97;5288443;27;20105;-92
2023/02/07 01:03:12;;;;;;;21.42;9.50;;;;;;;-4.58;58.90;102077.84;5304821;27;20117;-92
2023/02/07 01:05:37;;;;;;;24.23;10.05;;;;;;;-4.70;58.89;102081.34;5268705;27;20061;-91
2023/02/07 01:08:03;;;;;;;28.87;10.73;;;;;;;-4.75;58.89;102076.72;5269383;27;20056;-94
2023/02/07 01:10:28;;;;;;;26.75;10.40;;;;;;;-4.73;58.89;102071.00;5269703;27;20116;-93
2023/02/07 01:12:54;;;;;;;28.95;10.82;;;;;;;-4.77;58.89;102080.81;5269534;27;20056;-94
2023/02/07 01:15:19;;;;;;;30.20;10.27;;;;;;;-4.64;58.89;102070.72;5283549;26;20021;-93
2023/02/07 01:17:45;;;;;;;25.35;9.30;;;;;;;-4.67;58.90;102076.47;5286065;27;20076;-92
2023/02/07 01:20:10;;;;;;;28.08;10.73;;;;;;;-4.72;58.89;102077.84;5286808;26;20017;-90
2023/02/07 01:22:37;;;;;;;31.85;11.05;;;;;;;-4.68;58.89;102069.63;5287099;26;20030;-91
2023/02/07 01:25:03;;;;;;;29.35;10.95;;;;;;;-4.75;58.89;102067.44;5280746;27;20056;-95
2023/02/07 01:27:28;;;;;;;26.40;10.15;;;;;;;-4.72;58.89;102059.19;5270942;27;20462;-93
2023/02/07 01:29:54;;;;;;;24.35;10.13;;;;;;;-4.74;58.89;102061.59;5270416;27;20111;-93
2023/02/07 01:32:19;;;;;;;33.00;11.43;;;;;;;-4.57;58.89;102051.66;5269399;27;20123;-95
2023/02/07 01:34:45;;;;;;;29.40;11.57;;;;;;;-4.82;58.88;102057.66;5269262;27;20113;-94
2023/02/07 01:37:10;;;;;;;23.38;10.13;;;;;;;-4.90;58.89;102057.94;5269433;27;20052;-94
2023/02/07 01:39:35;;;;;;;30.55;11.23;;;;;;;-4.79;58.88;102055.31;5269277;27;20045;-95
2023/02/07 01:42:01;;;;;;;28.83;11.80;;;;;;;-4.68;58.89;102041.69;5269217;27;20104;-94
2023/02/07 01:44:26;;;;;;;29.10;10.75;;;;;;;-4.61;58.90;102039.53;5290953;27;20087;-95
2023/02/07 01:46:52;;;;;;;27.62;12.00;;;;;;;-4.83;58.88;102047.41;5308197;27;20094;-94
2023/02/07 01:49:20;;;;;;;29.30;12.40;;;;;;;-4.80;58.88;102042.53;5257364;27;218194;-94
2023/02/07 01:51:52;;;;;;;30.67;11.65;;;;;;;-4.67;58.89;102027.31;5269888;27;20107;-93
2023/02/07 01:54:17;;;;;;;30.15;11.23;;;;;;;-4.78;58.90;102024.06;5270577;27;20072;-93
2023/02/07 01:56:45;;;;;;;28.08;11.50;;;;;;;-4.74;58.89;102026.00;5269513;27;20381;-93
2023/02/07 01:59:11;;;;;;;28.83;11.82;;;;;;;-4.84;58.89;102036.34;5269531;27;20429;-92
2023/02/07 02:01:36;;;;;;;29.20;11.52;;;;;;;-4.69;58.90;102024.69;5269105;27;20112;-92
2023/02/07 02:04:02;;;;;;;31.67;12.30;;;;;;;-4.73;58.89;102026.91;5269265;27;20088;-93
2023/02/07 02:06:29;;;;;;;26.35;11.07;;;;;;;-4.72;58.89;102021.94;5268978;27;22767;-92
2023/02/07 02:08:57;;;;;;;30.35;12.15;;;;;;;-4.68;58.90;102021.34;5271925;27;20035;-92
2023/02/07 02:11:53;;;;;;;28.67;11.55;;;;;;;-4.83;58.88;102016.91;5270681;27;20736;-92
2023/02/07 02:14:24;;;;;;;29.73;10.98;;;;;;;-4.79;58.89;102011.25;5305535;27;20060;-94
2023/02/07 02:17:08;;;;;;;24.08;11.15;;;;;;;-4.79;58.89;102018.88;5305047;27;20048;-94
2023/02/07 02:19:52;;;;;;;27.92;11.90;;;;;;;-4.91;58.89;102016.44;5305439;27;20698;-93
2023/02/07 02:22:55;;;;;;;34.38;12.45;;;;;;;-4.85;58.88;102013.41;5305579;27;20061;-94
2023/02/07 02:25:24;;;;;;;26.77;10.77;;;;;;;-4.98;58.88;102012.56;5306251;27;20709;-93
2023/02/07 02:28:13;;;;;;;27.33;10.48;;;;;;;-4.84;58.89;102008.41;5309423;27;20049;-93
2023/02/07 02:31:07;;;;;;;34.83;11.30;;;;;;;-4.96;58.88;102005.97;5305532;27;20017;-94
2023/02/07 02:33:50;;;;;;;26.12;10.95;;;;;;;-4.91;58.89;102018.09;5305510;27;20057;-94
2023/02/07 02:36:54;;;;;;;30.02;10.63;;;;;;;-5.12;58.87;102022.59;5287037;27;20056;-92
2023/02/07 02:39:26;;;;;;;30.62;11.85;;;;;;;-4.89;58.88;102013.97;5305470;27;20052;-93
2023/02/07 02:41:55;;;;;;;28.90;11.25;;;;;;;-4.93;58.88;102007.81;5288378;27;20048;-93
2023/02/07 02:44:43;;;;;;;25.35;10.30;;;;;;;-4.88;58.88;102015.75;5288617;27;20054;-93
2023/02/07 02:47:08;;;;;;;30.37;12.10;;;;;;;-5.05;58.88;102022.22;5269491;27;20346;-93
2023/02/07 02:49:34;;;;;;;33.78;12.95;;;;;;;-4.92;58.89;102029.91;5269268;27;20087;-93
2023/02/07 02:51:59;;;;;;;32.50;12.88;;;;;;;-4.84;58.89;102025.31;5269375;27;20086;-93
2023/02/07 02:54:33;;;;;;;28.27;10.75;;;;;;;-4.99;58.88;102028.59;5269269;27;20088;-93
2023/02/07 02:57:17;;;;;;;24.12;8.98;;;;;;;-5.07;58.87;102031.41;5269375;27;20067;-93
2023/02/07 02:59:49;;;;;;;22.75;8.85;;;;;;;-4.87;58.88;102014.97;5305644;27;20051;-93
2023/02/07 03:02:20;;;;;;;26.23;9.27;;;;;;;-4.92;58.88;102007.03;5308305;27;20029;-92
2023/02/07 03:05:07;;;;;;;23.95;9.93;;;;;;;-4.97;58.88;102000.75;5305195;27;20114;-94
2023/02/07 03:07:41;;;;;;;27.67;10.32;;;;;;;-4.97;58.88;102003.28;5271537;27;20078;-93
2023/02/07 03:10:23;;;;;;;25.00;11.15;;;;;;;-5.11;58.87;102015.09;5305377;27;20056;-91
2023/02/07 03:13:19;;;;;;;31.55;10.90;;;;;;;-5.07;58.87;102011.09;5288215;27;20063;-94
2023/02/07 03:16:03;;;;;;;23.85;9.45;;;;;;;-5.01;58.87;102021.66;5305490;27;20421;-92
2023/02/07 03:18:37;;;;;;;26.92;11.98;;;;;;;-5.11;58.87;102015.09;5306788;27;20064;-92
2023/02/07 03:21:25;;;;;;;33.90;11.32;;;;;;;-5.14;58.87;102021.62;5306130;27;20052;-92
2023/02/07 03:23:51;;;;;;;24.42;10.75;;;;;;;-5.27;58.86;102020.78;5308111;27;20044;-92
2023/02/07 03:26:16;;;;;;;27.85;11.45;;;;;;;-5.19;58.87;102022.97;5269056;27;20115;-93
2023/02/07 03:28:42;;;;;;;23.48;9.98;;;;;;;-5.20;58.87;102011.06;5268463;27;20476;-94
2023/02/07 03:31:07;;;;;;;28.62;11.45;;;;;;;-5.26;58.86;102020.00;5268552;27;20103;-93
2023/02/07 03:33:33;;;;;;;30.30;11.90;;;;;;;-5.36;58.85;102015.09;5268595;27;20127;-93
2023/02/07 03:36:02;;;;;;;25.40;10.85;;;;;;;-5.27;58.86;102030.06;5270089;27;20109;-92
2023/02/07 03:38:27;;;;;;;30.27;12.10;;;;;;;-5.31;58.86;102026.44;5287128;27;20064;-93
2023/02/07 03:40:57;;;;;;;27.25;10.15;;;;;;;-5.23;58.86;102028.59;5268699;27;20087;-92
2023/02/07 03:43:29;;;;;;;26.12;9.60;;;;;;;-5.11;58.87;102020.16;5269188;27;20641;-92
2023/02/07 03:45:55;;;;;;;25.92;9.35;;;;;;;-5.18;58.87;102015.47;5269189;27;20792;-92
2023/02/07 03:48:20;;;;;;;31.17;10.40;;;;;;;-5.26;58.86;102009.84;5268671;27;20057;-93
2023/02/07 03:50:48;;;;;;;20.85;9.38;;;;;;;-5.20;58.86;102009.41;5268795;27;20053;-93
2023/02/07 03:53:14;;;;;;;28.85;11.05;;;;;;;-5.23;58.86;102011.72;5269396;27;20131;-93
2023/02/07 03:55:39;;;;;;;22.50;9.43;;;;;;;-5.23;58.86;102014.25;5268994;27;20389;-93
2023/02/07 03:58:06;;;;;;;31.55;10.90;;;;;;;-5.26;58.86;102004.78;5269014;27;20449;-94
2023/02/07 04:00:32;;;;;;;24.65;10.98;;;;;;;-5.30;58.86;102007.88;5269133;27;20350;-94
2023/02/07 04:02:57;;;;;;;25.33;10.65;;;;;;;-5.25;58.86;102006.53;5271716;27;20094;-94
2023/02/07 04:05:22;;;;;;;28.45;10.32;;;;;;;-5.36;58.85;102004.94;5278516;26;20065;-88
2023/02/07 04:07:48;;;;;;;28.20;10.77;;;;;;;-5.27;58.86;102004.66;5272742;27;20075;-94
2023/02/07 04:10:13;;;;;;;29.77;10.85;;;;;;;-5.46;58.85;102010.16;5270174;27;20071;-93
2023/02/07 04:12:39;;;;;;;29.05;11.10;;;;;;;-5.51;58.84;102008.09;5270039;27;20052;-94
2023/02/07 04:15:05;;;;;;;26.55;11.12;;;;;;;-5.47;58.85;101998.25;5270044;27;20107;-93
2023/02/07 04:17:30;;;;;;;26.25;10.50;;;;;;;-5.59;58.84;101997.41;5271192;27;20061;-93
2023/02/07 04:19:55;;;;;;;26.30;10.02;;;;;;;-5.56;58.84;102002.69;5269228;27;20100;-93
2023/02/07 04:22:21;;;;;;;32.67;12.85;;;;;;;-5.43;58.85;102004.44;5268266;27;20289;-94
2023/02/07 04:24:46;;;;;;;38.05;12.82;;;;;;;-5.39;58.85;102009.81;5269046;27;20107;-94
2023/02/07 04:27:12;;;;;;;27.75;10.77;;;;;;;-5.34;58.86;102005.03;5270929;27;20412;-92
2023/02/07 04:29:37;;;;;;;32.40;11.23;;;;;;;-5.44;58.84;102013.69;5270846;27;20103;-92
2023/02/07 04:32:03;;;;;;;24.90;9.70;;;;;;;-5.34;58.86;102005.94;5273824;27;20095;-93
2023/02/07 04:34:28;;;;;;;22.75;9.27;;;;;;;-5.54;58.84;102006.22;5268832;27;20098;-94
2023/02/07 04:36:54;;;;;;;24.85;10.10;;;;;;;-5.58;58.84;101999.19;5268653;27;20119;-93
2023/02/07 04:39:19;;;;;;;27.08;10.38;;;;;;;-5.59;58.83;101994.88;5270005;27;20071;-93
2023/02/07 04:41:45;;;;;;;24.83;9.52;;;;;;;-5.62;58.84;101993.03;5268667;27;20044;-93
2023/02/07 04:44:10;;;;;;;25.40;10.13;;;;;;;-5.66;58.83;101996.13;5269067;27;20104;-94
2023/02/07 04:46:35;;;;;;;26.70;9.05;;;;;;;-5.69;58.84;101998.41;5289557;27;20122;-95
2023/02/07 04:49:02;;;;;;;24.15;10.13;;;;;;;-5.56;58.84;102005.25;5268683;27;20367;-91
2023/02/07 04:51:28;;;;;;;26.83;9.73;;;;;;;-5.49;58.85;102009.06;5268238;27;20067;-92
2023/02/07 04:53:53;;;;;;;25.02;10.07;;;;;;;-5.55;58.85;102012.06;5286511;27;20095;-91
2023/02/07 04:56:19;;;;;;;22.58;9.77;;;;;;;-5.36;58.85;102014.22;5268418;27;20121;-92
2023/02/07 04:58:44;;;;;;;22.42;9.55;;;;;;;-5.57;58.84;102016.16;5268611;27;20096;-93
2023/02/07 05:01:10;;;;;;;25.60;10.82;;;;;;;-5.43;58.86;102017.13;5269127;27;20107;-94
2023/02/07 05:03:35;;;;;;;31.20;11.23;;;;;;;-5.41;58.85;102026.59;5268256;27;20064;-92
2023/02/07 05:06:00;;;;;;;27.00;11.05;;;;;;;-5.34;58.86;102022.81;5268067;27;20441;-95
2023/02/07 05:08:26;;;;;;;23.98;9.75;;;;;;;-5.42;58.85;102026.50;5268595;27;20068;-95
2023/02/07 05:10:54;;;;;;;29.42;11.65;;;;;;;-5.40;58.85;102027.47;5271820;27;20472;-93
2023/02/07 05:13:20;;;;;;;26.40;10.43;;;;;;;-5.41;58.85;102033.34;5270242;27;20076;-92
2023/02/07 05:15:46;;;;;;;25.17;9.48;;;;;;;-5.46;58.85;102043.13;5267936;27;20083;-95
2023/02/07 05:18:11;;;;;;;23.38;8.82;;;;;;;-5.44;58.84;102051.78;5268685;27;20092;-93
2023/02/07 05:20:36;;;;;;;28.45;10.25;;;;;;;-5.49;58.85;102054.75;5289422;27;20091;-91
2023/02/07 05:23:02;;;;;;;31.73;10.05;;;;;;;-5.61;58.84;102059.88;5270438;27;20091;-93
2023/02/07 05:25:27;;;;;;;28.67;9.52;;;;;;;-5.84;58.83;102057.37;5268400;27;20107;-92
2023/02/07 05:27:53;;;;;;;26.98;8.30;;;;;;;-5.77;58.83;102062.97;5286546;27;20088;-92
2023/02/07 05:30:18;;;;;;;27.55;10.00;;;;;;;-5.74;58.83;102060.66;5268172;27;20104;-92
2023/02/07 05:33:02;;;;;;;33.28;9.95;;;;;;;-5.83;58.83;102059.12;5271633;27;20060;-93
2023/02/07 05:35:29;;;;;;;26.62;10.35;;;;;;;-5.96;58.82;102065.88;5274600;27;20052;-92
2023/02/07 05:37:54;;;;;;;33.08;11.30;;;;;;;-5.72;58.84;102064.16;5272440;27;20063;-92
2023/02/07 05:40:20;;;;;;;27.67;10.75;;;;;;;-5.73;58.83;102064.94;5268567;27;20111;-91
2023/02/07 05:42:45;;;;;;;30.75;11.93;;;;;;;-5.57;58.84;102057.63;5269472;27;20108;-92
2023/02/07 05:45:11;;;;;;;27.48;10.63;;;;;;;-5.46;58.84;102058.38;5270398;27;20070;-92
2023/02/07 05:47:36;;;;;;;27.17;12.20;;;;;;;-5.66;58.83;102051.94;5271429;27;20095;-93
2023/02/07 05:50:01;;;;;;;44.63;16.87;;;;;;;-5.51;58.84;102054.63;5269051;27;20053;-93
2023/02/07 05:52:27;;;;;;;33.83;15.23;;;;;;;-5.56;58.85;102061.94;5268494;27;20461;-93
2023/02/07 05:54:52;;;;;;;31.67;12.90;;;;;;;-5.50;58.85;102058.94;5273219;27;20094;-93
2023/02/07 05:57:18;;;;;;;37.65;12.52;;;;;;;-5.52;58.84;102069.75;5271736;27;20052;-93
2023/02/07 05:59:43;;;;;;;26.17;11.02;;;;;;;-5.42;58.85;102062.03;5287322;27;20057;-93
2023/02/07 06:02:09;;;;;;;31.90;11.77;;;;;;;-5.18;58.86;102063.72;5269424;27;20315;-93
2023/02/07 06:04:34;;;;;;;35.85;13.93;;;;;;;-5.48;58.85;102062.47;5270266;27;20111;-93
2023/02/07 06:07:00;;;;;;;35.40;15.13;;;;;;;-5.36;58.85;102068.41;5270084;27;20455;-93
2023/02/07 06:09:26;;;;;;;54.65;19.23;;;;;;;-5.63;58.84;102067.37;5269607;27;20046;-93
2023/02/07 06:11:51;;;;;;;39.53;15.85;;;;;;;-5.56;58.85;102061.94;5269342;27;20075;-92
2023/02/07 06:14:16;;;;;;;41.53;15.55;;;;;;;-5.46;58.85;102063.44;5271382;27;20056;-93
2023/02/07 06:16:42;;;;;;;32.65;12.80;;;;;;;-5.47;58.85;102076.03;5271888;27;20476;-92
2023/02/07 06:19:10;;;;;;;33.75;13.57;;;;;;;-5.46;58.85;102073.59;5308278;27;20069;-92
2023/02/07 06:21:35;;;;;;;32.22;11.90;;;;;;;-5.25;58.86;102069.12;5271529;27;20085;-93
2023/02/07 06:24:01;;;;;;;28.77;12.60;;;;;;;-5.40;58.85;102071.50;5270473;27;20104;-93
2023/02/07 06:26:26;;;;;;;35.17;12.88;;;;;;;-5.46;58.85;102065.97;5271463;27;20070;-94
2023/02/07 06:28:51;;;;;;;39.95;13.98;;;;;;;-5.42;58.85;102069.63;5312345;27;20063;-92
2023/02/07 06:31:17;;;;;;;32.47;12.25;;;;;;;-5.46;58.85;102067.63;5270652;27;20119;-93
2023/02/07 06:33:42;;;;;;;33.55;12.88;;;;;;;-5.37;58.85;102069.16;5270478;27;20436;-93
2023/02/07 06:36:08;;;;;;;38.63;13.70;;;;;;;-5.34;58.85;102071.03;5269711;27;20084;-91
2023/02/07 06:38:33;;;;;;;33.95;12.60;;;;;;;-5.30;58.86;102065.38;5271560;27;20072;-93
2023/02/07 06:40:59;;;;;;;40.78;14.25;;;;;;;-5.23;58.86;102057.41;5269209;27;20102;-92
2023/02/07 06:43:24;;;;;;;41.78;13.82;;;;;;;-5.16;58.86;102062.16;5269184;27;20064;-91
2023/02/07 06:45:50;;;;;;;34.80;14.15;;;;;;;-5.04;58.87;102057.88;5271585;27;20052;-92
2023/02/07 06:48:15;;;;;;;34.85;13.10;;;;;;;-5.07;58.87;102046.66;5287525;27;20041;-92
2023/02/07 06:50:41;;;;;;;31.50;13.10;;;;;;;-4.95;58.88;102047.47;5287388;27;20068;-93
2023/02/07 06:53:06;;;;;;;35.55;12.07;;;;;;;-4.96;58.88;102046.59;5269562;27;20083;-92
2023/02/07 06:55:35;;;;;;;32.72;12.32;;;;;;;-4.78;58.89;102046.91;5269116;27;20100;-92
2023/02/07 06:58:00;;;;;;;33.75;12.37;;;;;;;-4.64;58.89;102036.03;5269489;27;20158;-90
2023/02/07 07:00:26;;;;;;;29.15;12.48;;;;;;;-4.44;58.91;102038.97;5269651;27;20064;-91
2023/02/07 07:02:52;;;;;;;29.08;12.48;;;;;;;-4.23;58.92;102039.50;5274695;26;20048;-89
2023/02/07 07:05:17;;;;;;;31.90;12.52;;;;;;;-4.23;58.92;102039.50;5285897;27;20076;-90
2023/02/07 07:07:43;;;;;;;32.35;12.73;;;;;;;-4.16;58.93;102034.88;5285954;26;20476;-90
2023/02/07 07:10:09;;;;;;;34.42;14.30;;;;;;;-4.21;58.92;102028.62;5286891;27;20072;-89
2023/02/07 07:12:34;;;;;;;31.27;13.75;;;;;;;-4.29;58.92;102028.91;5285864;27;20029;-92
2023/02/07 07:15:00;;;;;;;38.70;13.50;;;;;;;-4.15;58.92;102034.09;5268974;27;20052;-92
2023/02/07 07:17:25;;;;;;;35.08;13.15;;;;;;;-3.95;58.94;102029.41;5269084;27;20100;-91
2023/02/07 07:19:50;;;;;;;33.42;13.30;;;;;;;-3.94;58.94;102031.16;5268912;27;20056;-92
2023/02/07 07:22:16;;;;;;;35.20;15.25;;;;;;;-4.00;58.93;102023.16;5269188;27;20052;-91
2023/02/07 07:24:41;;;;;;;28.02;12.65;;;;;;;-4.05;58.93;102025.38;5269212;27;20056;-91
2023/02/07 07:27:07;;;;;;;70.00;28.90;;;;;;;-3.89;58.94;102025.56;5305935;27;20404;-91
2023/02/07 07:29:32;;;;;;;147.60;59.35;;;;;;;-3.61;58.96;102022.16;5269975;27;20151;-90
2023/02/07 07:31:57;;;;;;;55.70;28.87;;;;;;;-3.53;58.97;102024.41;5268928;27;20121;-91
2023/02/07 07:34:24;;;;;;;39.50;16.40;;;;;;;-3.58;58.96;102027.44;5270264;27;20052;-90
2023/02/07 07:36:50;;;;;;;40.65;16.15;;;;;;;-3.36;58.97;102020.31;5269551;27;20084;-92
2023/02/07 07:39:16;;;;;;;42.67;15.93;;;;;;;-3.34;58.97;102020.41;5269526;27;20454;-91
2023/02/07 07:41:41;;;;;;;40.17;15.65;;;;;;;-3.17;58.98;102020.66;5287260;27;20406;-92
2023/02/07 07:44:07;;;;;;;38.30;15.88;;;;;;;-3.12;59.00;102026.87;5268964;27;20062;-91
2023/02/07 07:46:32;;;;;;;35.85;14.93;;;;;;;-2.92;58.99;102022.97;5268999;27;20512;-91
2023/02/07 07:48:58;;;;;;;37.10;14.98;;;;;;;-2.84;59.00;102016.69;5268748;27;20074;-91
2023/02/07 07:51:24;;;;;;;36.38;14.57;;;;;;;-2.88;59.00;102018.94;5268963;27;20088;-91
2023/02/07 07:53:50;;;;;;;34.67;14.57;;;;;;;-2.91;59.00;102019.63;5274077;27;20072;-91
2023/02/07 07:56:15;;;;;;;38.42;14.80;;;;;;;-2.71;59.01;102017.38;5270452;27;20041;-91
2023/02/07 07:58:40;;;;;;;42.50;15.55;;;;;;;-2.51;59.02;102024.50;5269341;27;20374;-91
2023/02/07 08:01:06;;;;;;;43.83;14.02;;;;;;;-2.28;59.03;102016.47;5269311;27;20053;-92
2023/02/07 08:03:31;;;;;;;41.50;15.30;;;;;;;-2.14;59.04;102014.66;5269750;27;20096;-92
2023/02/07 08:05:57;;;;;;;36.33;14.23;;;;;;;-2.08;59.05;102017.56;5269039;27;20096;-91
2023/02/07 08:08:22;;;;;;;39.30;14.80;;;;;;;-1.89;59.05;102014.38;5269303;27;20115;-92
2023/02/07 08:10:48;;;;;;;33.70;12.75;;;;;;;-1.94;59.06;102015.75;5272667;27;20116;-90
2023/02/07 08:13:13;;;;;;;33.28;13.98;;;;;;;-1.72;59.07;102016.13;5270799;27;20092;-91
2023/02/07 08:15:39;;;;;;;34.88;13.68;;;;;;;-1.60;59.07;102015.94;5269973;27;20056;-91
2023/02/07 08:18:04;;;;;;;33.45;13.75;;;;;;;-1.52;59.08;102014.66;5269957;27;20077;-91
2023/02/07 08:20:30;;;;;;;32.85;12.27;;;;;;;-1.34;59.09;102007.97;5288860;27;20061;-92
2023/02/07 08:22:56;;;;;;;35.92;12.73;;;;;;;-1.56;59.08;102005.94;5269056;27;20467;-92
2023/02/07 08:25:22;;;;;;;34.90;13.50;;;;;;;-1.27;59.10;102004.91;5269381;27;20055;-92
2023/02/07 08:27:48;;;;;;;29.70;12.10;;;;;;;-1.16;59.11;102002.94;5268571;27;20057;-94
2023/02/07 08:30:13;;;;;;;36.97;13.95;;;;;;;-1.12;59.10;102007.38;5269012;27;20131;-91
2023/02/07 08:32:40;;;;;;;30.52;13.40;;;;;;;-0.90;59.12;102008.47;5269164;27;20053;-90
2023/02/07 08:35:06;;;;;;;34.40;15.07;;;;;;;-0.89;59.12;102006.00;5268298;27;21149;-90
2023/02/07 08:37:31;;;;;;;32.88;13.35;;;;;;;-1.02;59.12;102009.59;5269100;27;20107;-89
2023/02/07 08:39:57;;;;;;;30.85;12.57;;;;;;;-0.90;59.12;102009.37;5285714;27;20078;-89
2023/02/07 08:42:22;;;;;;;28.65;12.35;;;;;;;-0.70;59.13;102012.91;5268139;27;20107;-90
2023/02/07 08:44:48;;;;;;;29.40;12.68;;;;;;;-0.69;59.13;102004.44;5286034;27;20094;-90
2023/02/07 08:47:14;;;;;;;26.87;12.35;;;;;;;-0.68;59.13;102012.19;5268867;27;20142;-89
2023/02/07 08:49:39;;;;;;;26.58;12.18;;;;;;;-0.51;59.14;102014.69;5269084;27;20068;-91
2023/02/07 08:52:05;;;;;;;30.73;13.35;;;;;;;-0.50;59.15;102017.31;5268011;27;20092;-90
2023/02/07 08:54:30;;;;;;;29.20;11.80;;;;;;;-0.32;59.16;102015.66;5267937;27;20427;-90
2023/02/07 08:56:56;;;;;;;31.05;13.13;;;;;;;-0.32;59.15;102013.09;5268256;27;20061;-89
2023/02/07 08:59:21;;;;;;;36.08;14.18;;;;;;;-0.40;59.15;102014.41;5268421;27;20235;-91
2023/02/07 09:01:47;;;;;;;30.10;13.93;;;;;;;-0.20;59.16;102004.25;5268671;27;20064;-90
2023/02/07 09:04:12;;;;;;;30.80;13.82;;;;;;;-0.11;59.17;102007.25;5268387;27;20155;-90
2023/02/07 09:06:38;;;;;;;36.92;13.23;;;;;;;-0.02;59.17;102013.66;5268339;27;20065;-91
2023/02/07 09:09:03;;;;;;;31.15;13.20;;;;;;;0.04;59.18;102009.66;5268642;27;20110;-89
2023/02/07 09:11:29;;;;;;;32.65;13.25;;;;;;;-0.07;59.16;102009.13;5269446;27;20057;-92
2023/02/07 09:13:54;;;;;;;32.22;11.70;;;;;;;0.11;59.18;102012.56;5286415;27;20096;-90
2023/02/07 09:16:22;;;;;;;25.17;11.40;;;;;;;0.06;59.17;102005.47;5268651;27;20116;-89
2023/02/07 09:18:47;;;;;;;33.17;12.77;;;;;;;0.34;59.19;102002.50;5270011;27;20027;-89
2023/02/07 09:21:13;;;;;;;24.45;11.23;;;;;;;0.61;59.21;102001.16;5268887;27;20092;-91
2023/02/07 09:23:38;;;;;;;33.92;13.15;;;;;;;0.63;59.21;102002.09;5267682;27;20063;-90
2023/02/07 09:26:04;;;;;;;28.92;11.45;;;;;;;0.48;59.20;101997.19;5267733;27;20087;-89
2023/02/07 09:28:30;;;;;;;30.00;11.80;;;;;;;0.52;59.20;102008.47;5268289;27;20080;-89
2023/02/07 09:30:55;;;;;;;32.38;12.90;;;;;;;0.58;59.20;102004.47;5269876;27;20056;-89
2023/02/07 09:33:23;;;;;;;31.35;13.38;;;;;;;0.66;59.22;102002.25;5268277;27;20066;-88
2023/02/07 09:35:49;;;;;;;27.10;12.00;;;;;;;0.67;59.21;102003.13;5269635;27;20078;-90
2023/02/07 09:38:19;;;;;;;31.42;13.95;;;;;;;0.84;59.22;101997.06;5268754;27;20065;-90
2023/02/07 09:40:46;;;;;;;32.10;13.98;;;;;;;0.79;59.22;101998.53;5269706;27;20402;-90
2023/02/07 09:43:39;;;;;;;33.10;13.93;;;;;;;0.89;59.23;102009.25;5269262;27;20052;-91
2023/02/07 09:46:13;;;;;;;29.20;12.50;;;;;;;1.04;59.24;102000.47;5287143;27;20065;-90
2023/02/07 09:48:45;;;;;;;30.67;11.50;;;;;;;1.07;59.23;102006.59;5269311;27;20741;-89
2023/02/07 09:51:12;;;;;;;25.00;11.80;;;;;;;1.32;59.24;101994.81;5274893;27;20021;-88
2023/02/07 09:53:42;;;;;;;30.60;13.27;;;;;;;1.23;59.24;101990.19;5285484;27;20025;-89
2023/02/07 09:56:07;;;;;;;27.37;12.60;;;;;;;1.46;59.25;101986.00;5310725;27;20064;-89
2023/02/07 09:58:35;;;;;;;32.78;12.32;;;;;;;1.61;59.26;101983.16;5269805;27;20057;-89
2023/02/07 10:01:16;;;;;;;38.00;15.95;;;;;;;1.57;59.26;101987.28;5305684;27;20116;-88
2023/02/07 10:03:46;;;;;;;23.67;12.13;;;;;;;1.56;59.27;101987.22;5270638;27;20071;-89
2023/02/07 10:06:17;;;;;;;23.70;11.60;;;;;;;1.75;59.27;101985.47;5269142;27;20457;-90
2023/02/07 10:08:42;;;;;;;26.98;11.30;;;;;;;1.91;59.28;101975.81;5268416;27;20053;-91
2023/02/07 10:11:23;;;;;;;27.65;11.25;;;;;;;2.04;59.29;101965.16;5269009;27;20404;-89
2023/02/07 10:13:58;;;;;;;27.87;11.60;;;;;;;2.32;59.31;101967.94;5305838;27;20070;-89
2023/02/07 10:16:26;;;;;;;21.45;10.57;;;;;;;2.22;59.30;101971.00;5286883;27;20063;-89
2023/02/07 10:19:18;;;;;;;23.50;11.55;;;;;;;2.28;59.31;101973.78;5305711;27;20071;-89
2023/02/07 10:22:05;;;;;;;29.42;11.07;;;;;;;2.31;59.31;101973.03;5308102;27;20025;-89
2023/02/07 10:24:56;;;;;;;20.73;8.98;;;;;;;2.57;59.31;101968.81;5305705;27;20061;-90
2023/02/07 10:27:30;;;;;;;22.80;10.30;;;;;;;2.65;59.33;101959.72;5293928;27;20425;-90
2023/02/07 10:30:34;;;;;;;24.20;10.23;;;;;;;2.83;59.34;101955.19;5289549;27;20030;-90
2023/02/07 10:33:24;;;;;;;23.50;10.13;;;;;;;3.03;59.35;101958.44;5305359;27;20473;-90
2023/02/07 10:35:50;;;;;;;20.15;9.15;;;;;;;3.07;59.35;101956.03;5270348;27;20037;-90
2023/02/07 10:38:29;;;;;;;28.05;10.90;;;;;;;3.25;59.36;101952.31;5287020;27;20112;-91
2023/02/07 10:40:59;;;;;;;22.42;10.25;;;;;;;3.00;59.34;101946.38;5287313;27;20475;-89
2023/02/07 10:43:31;;;;;;;24.08;10.52;;;;;;;3.27;59.36;101943.81;5291943;27;20056;-90
2023/02/07 10:46:02;;;;;;;23.17;9.35;;;;;;;3.19;59.36;101940.12;5275210;27;21142;-89
2023/02/07 10:48:27;;;;;;;20.23;9.45;;;;;;;3.35;59.36;101934.69;5278014;27;20025;-89
2023/02/07 10:50:54;;;;;;;21.35;10.05;;;;;;;3.55;59.37;101925.00;5292776;27;20099;-89
2023/02/07 10:53:42;;;;;;;23.60;10.02;;;;;;;3.76;59.39;101919.62;5292229;27;20139;-89
2023/02/07 10:56:14;;;;;;;19.70;9.40;;;;;;;3.86;59.40;101921.66;5309875;27;20027;-89
2023/02/07 10:58:40;;;;;;;19.92;10.15;;;;;;;3.87;59.39;101931.13;5291453;27;20061;-91
2023/02/07 11:01:05;;;;;;;21.48;10.68;;;;;;;3.96;59.40;101926.25;5289215;27;20082;-89
2023/02/07 11:03:30;;;;;;;23.25;10.70;;;;;;;4.07;59.41;101918.84;5290614;27;20089;-91
2023/02/07 11:05:57;;;;;;;23.23;10.70;;;;;;;4.23;59.42;101918.44;5269319;27;20060;-89
2023/02/07 11:08:35;;;;;;;27.23;10.77;;;;;;;4.16;59.41;101916.53;5288656;27;20029;-91
2023/02/07 11:11:28;;;;;;;22.55;10.57;;;;;;;4.30;59.42;101914.34;5270501;27;20661;-89
2023/02/07 11:13:54;;;;;;;28.40;10.85;;;;;;;4.27;59.42;101914.28;5269792;27;20803;-89
2023/02/07 11:16:20;;;;;;;25.37;11.73;;;;;;;4.18;59.41;101916.56;5287470;27;20045;-91